Time;durP1;ratioP1;P1;durP2;ratioP2;P2;SDS_P1;SDS_P2;PMS_P1;PMS_P2;Temp;Humidity;BMP_temperature;BMP_pressure;BME280_temperature;BME280_humidity;BME280_pressure;Samples;Min_cycle;Max_cycle;Signal;HPM_P1;HPM_P2
2022/06/11 00:02:30;;;;;;;0.40;0.40;;;14.10;99.90;;;;;;5136021;27;20196;-72
2022/06/11 00:05:33;;;;;;;0.40;0.40;;;14.00;99.90;;;;;;5136001;27;20205;-72
2022/06/11 00:08:37;;;;;;;1.42;1.00;;;14.10;99.90;;;;;;5136004;27;20277;-72
2022/06/11 00:11:40;;;;;;;0.70;0.68;;;14.10;99.90;;;;;;5117497;27;20278;-74
2022/06/11 00:14:43;;;;;;;0.70;0.70;;;14.10;99.90;;;;;;5135733;27;20276;-72
2022/06/11 00:17:46;;;;;;;0.50;0.50;;;14.10;99.90;;;;;;5135817;27;20194;-73
2022/06/11 00:20:49;;;;;;;0.40;0.40;;;14.00;99.90;;;;;;5135674;27;20205;-72
2022/06/11 00:23:52;;;;;;;0.40;0.40;;;14.00;99.90;;;;;;5135597;27;20214;-72
2022/06/11 00:26:55;;;;;;;0.50;0.50;;;14.00;99.90;;;;;;5135275;27;20660;-74
2022/06/11 00:29:58;;;;;;;0.80;0.80;;;13.90;99.90;;;;;;5135312;27;20218;-73
2022/06/11 00:33:01;;;;;;;0.65;0.65;;;13.90;99.90;;;;;;5132819;27;20258;-72
2022/06/11 00:36:04;;;;;;;1.33;1.23;;;13.90;99.90;;;;;;5155878;27;20611;-73
2022/06/11 00:39:07;;;;;;;0.47;0.47;;;13.90;99.90;;;;;;5155698;27;20190;-72
2022/06/11 00:42:10;;;;;;;0.43;0.43;;;13.70;99.90;;;;;;5155631;27;20205;-73
2022/06/11 00:45:13;;;;;;;0.60;0.60;;;13.60;99.90;;;;;;5155649;27;20272;-72
2022/06/11 00:48:16;;;;;;;0.40;0.40;;;13.40;99.90;;;;;;5155718;27;20212;-73
2022/06/11 00:51:19;;;;;;;0.40;0.40;;;13.20;99.90;;;;;;5154320;27;20290;-72
2022/06/11 00:54:22;;;;;;;0.50;0.50;;;13.10;99.90;;;;;;5155896;27;20656;-73
2022/06/11 00:57:26;;;;;;;0.50;0.50;;;13.00;99.90;;;;;;5155506;27;20189;-72
2022/06/11 01:00:29;;;;;;;0.50;0.50;;;13.00;99.90;;;;;;5136982;27;20209;-72
2022/06/11 01:03:32;;;;;;;0.60;0.60;;;13.10;99.90;;;;;;5155460;27;20216;-72
2022/06/11 01:06:35;;;;;;;0.40;0.40;;;13.10;99.90;;;;;;5155502;27;20232;-72
2022/06/11 01:09:38;;;;;;;0.50;0.50;;;13.10;99.90;;;;;;5136784;27;20205;-72
2022/06/11 01:12:41;;;;;;;0.60;0.60;;;13.20;99.90;;;;;;5155399;27;20186;-72
2022/06/11 01:15:44;;;;;;;0.40;0.40;;;13.20;99.90;;;;;;5155344;27;20648;-72
2022/06/11 01:18:48;;;;;;;0.40;0.40;;;13.20;99.90;;;;;;5155305;27;20189;-71
2022/06/11 01:21:51;;;;;;;0.43;0.43;;;13.30;99.90;;;;;;5155249;27;20639;-71
2022/06/11 01:24:54;;;;;;;0.40;0.40;;;13.20;99.90;;;;;;5155187;27;20193;-72
2022/06/11 01:27:57;;;;;;;0.60;0.60;;;13.20;99.90;;;;;;5136218;27;20699;-72
2022/06/11 01:31:00;;;;;;;0.43;0.43;;;13.10;99.90;;;;;;5154854;27;20639;-72
2022/06/11 01:34:06;;;;;;;0.40;0.40;;;13.10;99.90;;;;;;5154820;27;20221;-72
2022/06/11 01:37:09;;;;;;;0.40;0.40;;;13.10;99.90;;;;;;5154813;27;20194;-72
2022/06/11 01:40:12;;;;;;;0.70;0.65;;;13.20;99.90;;;;;;5136060;27;20212;-72
2022/06/11 01:43:15;;;;;;;0.40;0.40;;;13.20;99.90;;;;;;5154564;27;20249;-72
2022/06/11 01:46:18;;;;;;;0.40;0.40;;;13.20;99.90;;;;;;5154247;27;20228;-71
2022/06/11 01:49:21;;;;;;;0.52;0.52;;;13.20;99.90;;;;;;5154389;27;20759;-72
2022/06/11 01:52:24;;;;;;;0.40;0.40;;;13.30;99.90;;;;;;5154586;27;20213;-71
2022/06/11 01:55:27;;;;;;;0.50;0.50;;;13.20;99.90;;;;;;5135967;27;20250;-73
2022/06/11 01:58:30;;;;;;;0.52;0.52;;;13.20;99.90;;;;;;5154482;27;20773;-71
2022/06/11 02:01:33;;;;;;;0.40;0.40;;;13.20;99.90;;;;;;5152744;27;20193;-70
2022/06/11 02:04:37;;;;;;;0.75;0.68;;;13.10;99.90;;;;;;5135921;27;20233;-70
2022/06/11 02:07:41;;;;;;;0.77;0.60;;;13.00;99.90;;;;;;5154354;27;20292;-73
2022/06/11 02:10:45;;;;;;;1.58;0.55;;;13.00;99.90;;;;;;5135521;27;20194;-73
2022/06/11 02:13:48;;;;;;;0.57;0.57;;;12.90;99.90;;;;;;5154733;27;20197;-72
2022/06/11 02:16:51;;;;;;;0.70;0.70;;;12.90;99.90;;;;;;5154486;27;20197;-71
2022/06/11 02:19:54;;;;;;;0.50;0.50;;;12.90;99.90;;;;;;5154455;27;20201;-72
2022/06/11 02:22:58;;;;;;;0.68;0.68;;;12.90;99.90;;;;;;5135734;27;20209;-72
2022/06/11 02:26:01;;;;;;;0.80;0.80;;;12.90;99.90;;;;;;5153857;27;20209;-72
2022/06/11 02:29:03;;;;;;;0.50;0.50;;;12.90;99.90;;;;;;5154230;27;20194;-72
2022/06/11 02:32:06;;;;;;;0.57;0.57;;;13.00;99.90;;;;;;5154167;27;20691;-72
2022/06/11 02:35:09;;;;;;;0.50;0.50;;;13.10;99.90;;;;;;5154009;27;20194;-71
2022/06/11 02:38:12;;;;;;;1.27;1.17;;;13.10;99.90;;;;;;5154069;27;20190;-71
2022/06/11 02:41:15;;;;;;;1.13;0.90;;;13.10;99.90;;;;;;5153963;27;20254;-71
2022/06/11 02:44:18;;;;;;;1.05;0.90;;;13.10;99.90;;;;;;5114897;28;20691;-70
2022/06/11 02:47:21;;;;;;;0.50;0.50;;;13.10;99.90;;;;;;5130324;27;20210;-71
2022/06/11 02:50:24;;;;;;;0.50;0.50;;;13.10;99.90;;;;;;5141896;27;20673;-73
2022/06/11 02:53:31;;;;;;;1.30;1.08;;;13.00;99.90;;;;;;5133521;28;20672;-71
2022/06/11 02:56:34;;;;;;;0.52;0.52;;;12.90;99.90;;;;;;5130760;27;20565;-71
2022/06/11 02:59:37;;;;;;;0.50;0.50;;;12.80;99.90;;;;;;5154152;27;20189;-72
2022/06/11 03:02:40;;;;;;;1.42;1.25;;;12.80;99.90;;;;;;5152972;27;20667;-72
2022/06/11 03:05:44;;;;;;;0.40;0.40;;;12.70;99.90;;;;;;5133205;28;20190;-72
2022/06/11 03:08:47;;;;;;;0.60;0.60;;;12.60;99.90;;;;;;5133327;28;20190;-70
2022/06/11 03:11:50;;;;;;;0.60;0.60;;;12.60;99.90;;;;;;5133326;28;20285;-73
2022/06/11 03:14:53;;;;;;;0.70;0.70;;;12.50;99.90;;;;;;5133211;28;20194;-72
2022/06/11 03:17:56;;;;;;;0.98;0.82;;;12.50;99.90;;;;;;5133105;28;20247;-72
2022/06/11 03:20:59;;;;;;;0.38;0.38;;;12.50;99.90;;;;;;5142411;27;20656;-73
2022/06/11 03:24:02;;;;;;;0.65;0.65;;;12.50;99.90;;;;;;5157351;27;20217;-72
2022/06/11 03:27:05;;;;;;;0.65;0.65;;;12.60;99.90;;;;;;5157199;27;20237;-72
2022/06/11 03:30:09;;;;;;;0.63;0.63;;;12.80;99.90;;;;;;5157407;27;20193;-72
2022/06/11 03:33:12;;;;;;;0.65;0.65;;;13.00;99.90;;;;;;5138662;27;20343;-73
2022/06/11 03:36:15;;;;;;;0.90;0.70;;;13.10;99.90;;;;;;5157196;27;20201;-72
2022/06/11 03:39:19;;;;;;;0.50;0.50;;;13.20;99.90;;;;;;5138408;27;20209;-71
2022/06/11 03:42:22;;;;;;;0.82;0.82;;;13.30;99.90;;;;;;5157068;27;20221;-71
2022/06/11 03:45:25;;;;;;;1.60;0.80;;;13.40;99.90;;;;;;5138346;27;20210;-71
2022/06/11 03:48:31;;;;;;;0.45;0.45;;;13.50;99.90;;;;;;5157115;27;20673;-72
2022/06/11 03:51:34;;;;;;;0.60;0.60;;;13.60;99.90;;;;;;5115990;27;20314;-72
2022/06/11 03:54:37;;;;;;;1.23;0.95;;;13.70;99.90;;;;;;5115656;28;20546;-72
2022/06/11 03:57:40;;;;;;;2.42;0.85;;;13.80;99.90;;;;;;5115583;28;20654;-71
2022/06/11 04:04:05;;;;;;;0.30;0.30;;;14.10;99.90;;;;;;5115560;28;20249;-71
2022/06/11 04:07:08;;;;;;;0.40;0.40;;;14.30;99.90;;;;;;5115156;28;20267;-72
2022/06/11 04:10:11;;;;;;;0.50;0.50;;;14.50;99.90;;;;;;5118446;27;20669;-71
2022/06/11 04:13:14;;;;;;;0.70;0.65;;;14.50;99.90;;;;;;5135862;27;20198;-71
2022/06/11 04:16:17;;;;;;;0.60;0.60;;;14.50;99.90;;;;;;5134672;27;20237;-71
2022/06/11 04:19:21;;;;;;;1.00;1.00;;;14.60;99.90;;;;;;5134508;27;20683;-71
2022/06/11 04:22:24;;;;;;;1.00;0.95;;;14.50;99.90;;;;;;5136129;27;20199;-73
2022/06/11 04:25:27;;;;;;;0.57;0.57;;;14.40;99.90;;;;;;5135660;27;20653;-71
2022/06/11 04:28:30;;;;;;;0.63;0.63;;;14.40;99.90;;;;;;5136192;27;20206;-70
2022/06/11 04:31:33;;;;;;;0.65;0.65;;;14.30;99.90;;;;;;5134200;27;20233;-70
2022/06/11 04:34:36;;;;;;;2.00;1.58;;;14.20;99.90;;;;;;5135617;27;20563;-71
2022/06/11 04:37:39;;;;;;;1.52;1.42;;;14.10;99.90;;;;;;5114889;28;20204;-71
2022/06/11 04:40:43;;;;;;;0.60;0.60;;;14.00;99.90;;;;;;5113464;28;20849;-71
2022/06/11 04:43:46;;;;;;;0.68;0.68;;;13.90;99.90;;;;;;5114638;28;20187;-71
2022/06/11 04:46:49;;;;;;;0.40;0.40;;;13.90;99.90;;;;;;5113184;28;20301;-71
2022/06/11 04:49:52;;;;;;;0.98;0.75;;;14.00;99.90;;;;;;5121442;27;20191;-72
2022/06/11 04:52:55;;;;;;;4.55;1.92;;;14.20;99.90;;;;;;5135048;27;20194;-71
2022/06/11 04:55:58;;;;;;;34.58;1.48;;;14.40;99.90;;;;;;5133506;27;20293;-73
2022/06/11 04:59:02;;;;;;;0.82;0.82;;;14.50;99.90;;;;;;5133432;27;20195;-72
2022/06/11 05:02:05;;;;;;;0.50;0.50;;;14.60;99.90;;;;;;5134561;27;20267;-73
2022/06/11 05:05:08;;;;;;;1.75;0.77;;;14.60;99.90;;;;;;5134715;27;20186;-72
2022/06/11 05:08:11;;;;;;;0.40;0.40;;;14.70;99.90;;;;;;5134558;27;20198;-72
2022/06/11 05:11:14;;;;;;;0.60;0.60;;;14.80;99.90;;;;;;5134559;27;20574;-73
2022/06/11 05:14:17;;;;;;;0.40;0.40;;;15.10;99.90;;;;;;5134399;27;20202;-73
2022/06/11 05:17:20;;;;;;;1.55;1.05;;;15.20;99.90;;;;;;5133073;27;20564;-72
2022/06/11 05:20:24;;;;;;;0.60;0.60;;;15.10;99.90;;;;;;5133156;27;20254;-73
2022/06/11 05:23:27;;;;;;;0.40;0.40;;;15.10;99.90;;;;;;5134447;27;20201;-72
2022/06/11 05:26:30;;;;;;;0.65;0.65;;;14.90;99.90;;;;;;5134440;27;20309;-72
2022/06/11 05:29:33;;;;;;;0.40;0.40;;;14.80;99.90;;;;;;5134356;27;20657;-73
2022/06/11 05:32:37;;;;;;;0.40;0.40;;;14.60;99.90;;;;;;5120836;27;20203;-72
2022/06/11 05:35:40;;;;;;;0.68;0.68;;;14.60;99.90;;;;;;5124036;27;20293;-72
2022/06/11 05:38:43;;;;;;;1.10;0.88;;;14.80;99.90;;;;;;5132803;27;20668;-72
2022/06/11 05:41:47;;;;;;;0.40;0.40;;;15.10;99.90;;;;;;5132776;27;20198;-72
2022/06/11 05:44:50;;;;;;;0.38;0.38;;;15.40;99.90;;;;;;5133314;27;20195;-72
2022/06/11 05:47:53;;;;;;;2.92;1.85;;;15.60;99.90;;;;;;5133909;27;20763;-72
2022/06/11 05:50:56;;;;;;;0.60;0.60;;;15.80;99.90;;;;;;5132192;27;20631;-71
2022/06/11 05:53:59;;;;;;;0.50;0.50;;;15.80;99.90;;;;;;5133802;27;20201;-72
2022/06/11 05:57:02;;;;;;;0.40;0.40;;;15.80;99.90;;;;;;5132540;27;20247;-72
2022/06/11 06:00:05;;;;;;;1.45;1.00;;;16.00;99.90;;;;;;5132364;27;20290;-72
2022/06/11 06:03:08;;;;;;;3.03;1.35;;;16.00;99.90;;;;;;5133396;27;20197;-72
2022/06/11 06:06:12;;;;;;;0.75;0.73;;;16.20;99.90;;;;;;5132415;27;20218;-71
2022/06/11 06:09:15;;;;;;;1.95;1.30;;;16.40;99.90;;;;;;5133430;27;20223;-72
2022/06/11 06:12:19;;;;;;;0.65;0.40;;;16.60;99.90;;;;;;5132383;28;20660;-75
2022/06/11 06:15:22;;;;;;;0.90;0.65;;;17.50;99.90;;;;;;5133809;28;20221;-75
2022/06/11 06:18:24;;;;;;;1.08;1.00;;;18.10;99.90;;;;;;5133731;28;20202;-75
2022/06/11 06:21:27;;;;;;;5.25;2.55;;;18.40;99.90;;;;;;5133854;28;20194;-76
2022/06/11 06:24:30;;;;;;;27.73;0.95;;;18.50;99.90;;;;;;5133775;28;20563;-74
2022/06/11 06:27:34;;;;;;;0.50;0.50;;;18.80;99.90;;;;;;5132249;28;20298;-74
2022/06/11 06:30:37;;;;;;;0.80;0.80;;;18.60;99.90;;;;;;5133555;28;20653;-73
2022/06/11 06:33:40;;;;;;;0.40;0.40;;;18.30;99.90;;;;;;5133338;28;20190;-75
2022/06/11 06:36:43;;;;;;;0.50;0.50;;;18.40;99.90;;;;;;5133745;28;20208;-74
2022/06/11 06:39:46;;;;;;;6.97;1.25;;;17.90;99.90;;;;;;5133305;27;20281;-74
2022/06/11 06:42:49;;;;;;;0.45;0.45;;;18.10;99.90;;;;;;5133440;28;20198;-75
2022/06/11 06:45:53;;;;;;;1.17;0.55;;;18.20;99.90;;;;;;5132019;28;20247;-74
2022/06/11 06:48:56;;;;;;;1.88;1.27;;;18.20;99.90;;;;;;5131998;28;20281;-74
2022/06/11 06:51:59;;;;;;;1.15;0.60;;;18.10;99.90;;;;;;5126001;28;20565;-74
2022/06/11 06:55:02;;;;;;;0.50;0.50;;;17.80;99.90;;;;;;5133145;28;20266;-75
2022/06/11 06:58:05;;;;;;;1.58;1.00;;;18.10;99.90;;;;;;5137166;27;20194;-74
2022/06/11 07:01:08;;;;;;;3.35;1.08;;;18.10;99.90;;;;;;5136859;27;20199;-75
2022/06/11 07:04:11;;;;;;;0.73;0.57;;;18.40;99.90;;;;;;5137129;27;20198;-73
2022/06/11 07:07:14;;;;;;;0.70;0.70;;;18.30;99.90;;;;;;5177463;27;20694;-75
2022/06/11 07:10:17;;;;;;;1.27;1.17;;;18.00;99.90;;;;;;5178751;27;20734;-74
2022/06/11 07:13:20;;;;;;;0.30;0.30;;;18.20;99.90;;;;;;5178605;27;20560;-74
2022/06/11 07:16:23;;;;;;;0.35;0.35;;;18.40;99.90;;;;;;5178673;27;20718;-75
2022/06/11 07:19:26;;;;;;;0.55;0.55;;;18.90;99.90;;;;;;5159763;27;20203;-73
2022/06/11 07:22:31;;;;;;;0.50;0.50;;;19.00;99.90;;;;;;5159743;27;20208;-74
2022/06/11 07:25:35;;;;;;;2.78;1.90;;;19.30;99.90;;;;;;5134848;27;20202;-74
2022/06/11 07:28:38;;;;;;;1.50;0.90;;;19.90;99.90;;;;;;5138906;27;20209;-73
2022/06/11 07:31:42;;;;;;;1.42;0.40;;;20.10;99.90;;;;;;5138726;27;20241;-74
2022/06/11 07:34:45;;;;;;;0.52;0.52;;;20.00;99.90;;;;;;5138973;27;20201;-74
2022/06/11 07:37:48;;;;;;;2.40;0.95;;;20.10;99.90;;;;;;5157154;27;20552;-74
2022/06/11 07:40:51;;;;;;;0.52;0.52;;;20.50;99.90;;;;;;5138673;27;20288;-74
2022/06/11 07:43:55;;;;;;;0.32;0.30;;;20.20;99.90;;;;;;5138509;27;20198;-75
2022/06/11 07:46:58;;;;;;;0.40;0.40;;;20.50;99.90;;;;;;5156687;27;20216;-74
2022/06/11 07:50:01;;;;;;;1.05;0.60;;;20.70;99.90;;;;;;5156727;27;20225;-74
2022/06/11 07:53:04;;;;;;;5.43;0.77;;;20.60;99.90;;;;;;5138087;27;20209;-74
2022/06/11 07:56:07;;;;;;;0.73;0.60;;;20.90;99.90;;;;;;5138149;27;20205;-74
2022/06/11 07:59:10;;;;;;;7.25;0.60;;;21.10;99.90;;;;;;5156686;27;20611;-72
2022/06/11 08:02:13;;;;;;;0.95;0.77;;;20.60;99.90;;;;;;5156384;27;20205;-72
2022/06/11 08:05:16;;;;;;;0.22;0.22;;;20.40;99.90;;;;;;5156642;27;20250;-71
2022/06/11 08:08:19;;;;;;;0.95;0.77;;;20.30;99.90;;;;;;5155823;27;20202;-72
2022/06/11 08:11:22;;;;;;;1.75;1.25;;;20.00;99.90;;;;;;5156719;27;20699;-71
2022/06/11 08:14:25;;;;;;;0.50;0.50;;;19.60;99.90;;;;;;5156664;27;20542;-71
2022/06/11 08:17:28;;;;;;;0.80;0.80;;;19.50;99.90;;;;;;5156216;27;20561;-71
2022/06/11 08:20:31;;;;;;;5.07;2.05;;;19.10;99.90;;;;;;5137795;27;20342;-71
2022/06/11 08:23:36;;;;;;;1.30;0.82;;;18.80;99.90;;;;;;5156293;27;20197;-71
2022/06/11 08:26:39;;;;;;;2.97;1.52;;;18.70;99.90;;;;;;5137684;27;20254;-71
2022/06/11 08:29:42;;;;;;;8.40;1.27;;;18.30;99.90;;;;;;5156261;27;20656;-71
2022/06/11 08:32:45;;;;;;;8.07;1.77;;;18.20;99.90;;;;;;5155962;27;20186;-71
2022/06/11 08:35:48;;;;;;;1.27;1.05;;;17.80;99.90;;;;;;5156017;27;20311;-71
2022/06/11 08:38:14;;;;;;;5.85;0.82;;;17.90;99.90;;;;;;5155511;27;20189;-71
2022/06/11 08:40:50;;;;;;;0.57;0.57;;;17.90;99.90;;;;;;5137209;27;20198;-71
2022/06/11 08:43:36;;;;;;;1.50;1.00;;;17.80;99.90;;;;;;5156044;27;20242;-71
2022/06/11 08:46:07;;;;;;;18.58;1.88;;;17.90;99.90;;;;;;5155860;27;20289;-70
2022/06/11 08:48:42;;;;;;;0.93;0.85;;;18.00;99.90;;;;;;5154191;27;20186;-72
2022/06/11 08:51:16;;;;;;;0.20;0.20;;;18.80;99.90;;;;;;5134674;27;20307;-72
2022/06/11 08:53:42;;;;;;;0.52;0.52;;;19.50;99.90;;;;;;5134835;27;20660;-72
2022/06/11 08:56:29;;;;;;;0.40;0.40;;;19.80;99.90;;;;;;5134567;27;20191;-71
2022/06/11 08:59:16;;;;;;;0.73;0.65;;;20.00;99.90;;;;;;5153502;27;20228;-72
2022/06/11 09:02:00;;;;;;;0.30;0.30;;;20.60;99.90;;;;;;5155446;27;20230;-72
2022/06/11 09:04:39;;;;;;;0.30;0.30;;;21.20;99.90;;;;;;5136892;27;20728;-72
2022/06/11 09:07:24;;;;;;;0.80;0.50;;;21.30;99.90;;;;;;5136843;27;20305;-72
2022/06/11 09:10:13;;;;;;;0.95;0.90;;;20.90;99.90;;;;;;5155393;27;20182;-71
2022/06/11 09:13:19;;;;;;;0.30;0.30;;;20.90;99.90;;;;;;5136529;27;20664;-72
2022/06/11 09:15:51;;;;;;;0.63;0.60;;;20.70;99.90;;;;;;5154933;27;20289;-71
2022/06/11 09:18:25;;;;;;;0.68;0.40;;;20.00;99.90;;;;;;5154465;27;20198;-71
2022/06/11 09:21:19;;;;;;;0.30;0.30;;;19.70;99.90;;;;;;5154627;27;20194;-72
2022/06/11 09:24:17;;;;;;;0.55;0.45;;;19.40;99.90;;;;;;5155190;27;20200;-71
2022/06/11 09:27:05;;;;;;;0.20;0.20;;;19.50;99.90;;;;;;5155144;27;20603;-72
2022/06/11 09:29:53;;;;;;;0.85;0.80;;;19.50;99.90;;;;;;5154488;27;20194;-71
2022/06/11 09:32:30;;;;;;;7.95;0.93;;;19.20;99.90;;;;;;5154412;27;20294;-71
2022/06/11 09:35:19;;;;;;;0.30;0.30;;;18.90;99.90;;;;;;5136473;27;20661;-72
2022/06/11 09:38:10;;;;;;;0.30;0.30;;;18.80;99.90;;;;;;5154956;27;20191;-71
2022/06/11 09:40:50;;;;;;;1.15;0.88;;;19.50;99.90;;;;;;5154730;27;20564;-78
2022/06/11 09:43:39;;;;;;;0.82;0.82;;;20.50;99.90;;;;;;5136307;27;20186;-73
2022/06/11 09:46:23;;;;;;;7.32;1.30;;;21.10;99.90;;;;;;5154603;27;20308;-74
2022/06/11 09:48:58;;;;;;;0.30;0.30;;;21.60;99.90;;;;;;5136133;27;20182;-74
2022/06/11 09:51:32;;;;;;;1.88;0.60;;;21.50;99.90;;;;;;5154361;27;20703;-73
2022/06/11 09:54:10;;;;;;;0.28;0.28;;;21.20;99.90;;;;;;5154609;27;20229;-73
2022/06/11 09:56:43;;;;;;;0.55;0.55;;;20.70;99.90;;;;;;5154501;27;20660;-73
2022/06/11 09:59:14;;;;;;;1.95;0.63;;;20.20;99.90;;;;;;5154745;27;20190;-73
2022/06/11 10:01:49;;;;;;;7.63;0.65;;;20.20;99.90;;;;;;5154366;27;20202;-73
2022/06/11 10:04:19;;;;;;;4.55;0.68;;;20.60;99.90;;;;;;5136028;27;20228;-74
2022/06/11 10:06:50;;;;;;;4.47;1.85;;;20.60;99.90;;;;;;5135882;27;20212;-73
2022/06/11 10:09:19;;;;;;;0.52;0.52;;;19.90;99.90;;;;;;5136079;27;20277;-73
2022/06/11 10:12:06;;;;;;;0.85;0.85;;;19.70;99.90;;;;;;5154549;27;20201;-73
2022/06/11 10:14:38;;;;;;;2.63;1.27;;;19.90;99.90;;;;;;5154369;27;20199;-74
2022/06/11 10:17:26;;;;;;;0.60;0.60;;;20.80;99.90;;;;;;5154443;27;20256;-74
2022/06/11 10:20:01;;;;;;;0.30;0.30;;;21.80;99.90;;;;;;5154535;27;20214;-74
2022/06/11 10:22:46;;;;;;;1.13;0.70;;;22.20;99.90;;;;;;5135713;27;20190;-73
2022/06/11 10:25:12;;;;;;;0.57;0.55;;;21.90;99.90;;;;;;5154254;27;20209;-73
2022/06/11 10:27:44;;;;;;;1.05;0.93;;;21.80;99.90;;;;;;5154131;27;20213;-74
2022/06/11 10:30:40;;;;;;;3.42;0.55;;;21.90;99.90;;;;;;5155192;27;20619;-72
2022/06/11 10:33:32;;;;;;;2.22;1.45;;;21.50;99.90;;;;;;5158500;27;20202;-74
2022/06/11 10:36:20;;;;;;;6.90;1.63;;;20.60;99.90;;;;;;5155372;27;20213;-74
2022/06/11 10:38:52;;;;;;;5.93;1.35;;;21.20;99.90;;;;;;5158478;27;20194;-74
2022/06/11 10:41:46;;;;;;;0.82;0.82;;;22.20;99.90;;;;;;5139723;27;20697;-74
2022/06/11 10:44:20;;;;;;;0.50;0.50;;;22.80;99.90;;;;;;5133629;27;20214;-74
2022/06/11 10:46:47;;;;;;;1.70;0.63;;;22.30;99.90;;;;;;5139703;27;20300;-73
2022/06/11 10:49:18;;;;;;;2.55;0.47;;;21.60;99.90;;;;;;5139587;27;20190;-74
2022/06/11 10:51:53;;;;;;;0.45;0.45;;;21.00;99.90;;;;;;5157938;27;20222;-73
2022/06/11 10:54:24;;;;;;;0.30;0.30;;;21.50;99.90;;;;;;5158022;27;20624;-74
2022/06/11 10:57:03;;;;;;;0.40;0.40;;;22.00;99.90;;;;;;5158208;27;20190;-73
2022/06/11 10:59:35;;;;;;;0.30;0.30;;;22.20;99.90;;;;;;5157935;27;20209;-74
2022/06/11 11:02:26;;;;;;;0.98;0.70;;;22.30;99.90;;;;;;5157927;27;20182;-74
2022/06/11 11:04:58;;;;;;;0.75;0.75;;;21.90;99.90;;;;;;5139470;27;20190;-73
2022/06/11 11:07:25;;;;;;;1.65;0.77;;;21.30;99.90;;;;;;5139015;27;20214;-73
2022/06/11 11:09:56;;;;;;;5.28;1.88;;;20.70;99.90;;;;;;5157850;27;20243;-73
2022/06/11 11:12:29;;;;;;;3.38;0.60;;;20.20;99.90;;;;;;5147093;27;20202;-74
2022/06/11 11:15:10;;;;;;;0.40;0.40;;;20.10;99.90;;;;;;5137095;27;20187;-74
2022/06/11 11:17:45;;;;;;;0.30;0.30;;;20.50;99.90;;;;;;5118342;27;20412;-74
2022/06/11 11:20:40;;;;;;;0.30;0.30;;;21.10;99.90;;;;;;5136981;27;20277;-74
2022/06/11 11:23:30;;;;;;;0.30;0.30;;;21.60;99.90;;;;;;5138901;27;20198;-74
2022/06/11 11:26:18;;;;;;;8.77;0.68;;;22.40;99.90;;;;;;5157615;27;20202;-74
2022/06/11 11:28:50;;;;;;;0.30;0.30;;;22.90;99.90;;;;;;5138374;27;20665;-74
2022/06/11 11:31:21;;;;;;;0.40;0.40;;;23.40;99.90;;;;;;5157433;27;20696;-74
2022/06/11 11:34:22;;;;;;;0.30;0.30;;;23.30;99.90;;;;;;5157916;27;20190;-74
2022/06/11 11:36:49;;;;;;;0.40;0.40;;;23.30;99.90;;;;;;5146192;27;20234;-74
2022/06/11 11:39:16;;;;;;;1.90;1.20;;;23.30;99.90;;;;;;5157288;27;20238;-74
2022/06/11 11:42:19;;;;;;;0.50;0.35;;;22.80;99.90;;;;;;5156040;27;20186;-74
2022/06/11 11:44:49;;;;;;;0.32;0.32;;;22.00;99.90;;;;;;5157402;27;20313;-73
2022/06/11 11:47:35;;;;;;;3.42;0.45;;;21.70;99.90;;;;;;5157053;27;20198;-73
2022/06/11 11:50:34;;;;;;;1.52;0.70;;;21.70;99.90;;;;;;5130942;27;20182;-74
2022/06/11 11:53:29;;;;;;;0.20;0.20;;;21.60;99.90;;;;;;5157168;27;20187;-74
2022/06/11 11:56:04;;;;;;;0.20;0.20;;;21.30;99.90;;;;;;5138499;27;20262;-74
2022/06/11 11:58:47;;;;;;;9.93;2.00;;;21.70;99.90;;;;;;5156691;27;20201;-74
2022/06/11 12:01:18;;;;;;;1.48;1.17;;;22.60;99.90;;;;;;5156811;27;20705;-74
2022/06/11 12:04:06;;;;;;;0.20;0.20;;;22.80;99.90;;;;;;5138139;27;20198;-74
2022/06/11 12:06:36;;;;;;;6.75;0.35;;;22.70;99.90;;;;;;5156572;27;20206;-74
2022/06/11 12:09:07;;;;;;;0.38;0.38;;;22.50;99.90;;;;;;5156698;27;20209;-74
2022/06/11 12:11:36;;;;;;;0.30;0.30;;;22.30;99.90;;;;;;5137996;27;20243;-74
2022/06/11 12:14:15;;;;;;;5.97;0.95;;;22.30;99.90;;;;;;5156677;27;20212;-74
2022/06/11 12:16:52;;;;;;;0.43;0.43;;;22.00;99.90;;;;;;5156121;27;20266;-74
2022/06/11 12:19:20;;;;;;;0.20;0.20;;;21.70;99.90;;;;;;5156574;27;20198;-74
2022/06/11 12:22:01;;;;;;;0.85;0.50;;;21.40;99.90;;;;;;5156585;27;20190;-74
2022/06/11 12:24:34;;;;;;;0.57;0.55;;;21.10;99.90;;;;;;5156298;27;20190;-73
2022/06/11 12:27:04;;;;;;;0.20;0.20;;;20.90;99.90;;;;;;5137713;27;20213;-74
2022/06/11 12:29:37;;;;;;;0.30;0.30;;;20.60;99.90;;;;;;5156425;27;20277;-73
2022/06/11 12:32:21;;;;;;;0.93;0.93;;;20.90;99.90;;;;;;5137852;27;20259;-74
2022/06/11 12:34:47;;;;;;;0.60;0.60;;;21.00;99.90;;;;;;5156526;27;20196;-73
2022/06/11 12:37:16;;;;;;;0.20;0.20;;;21.00;99.90;;;;;;5158084;27;20194;-74
2022/06/11 12:39:56;;;;;;;3.20;1.10;;;20.90;99.90;;;;;;5158704;27;20213;-73
2022/06/11 12:42:35;;;;;;;0.93;0.60;;;20.70;99.90;;;;;;5137655;27;20201;-74
2022/06/11 12:45:04;;;;;;;0.20;0.20;;;20.40;99.90;;;;;;5156455;27;20713;-74
2022/06/11 12:47:45;;;;;;;0.82;0.80;;;20.50;99.90;;;;;;5156145;27;20660;-74
2022/06/11 12:50:41;;;;;;;0.75;0.32;;;20.40;99.90;;;;;;5147356;27;20248;-73
2022/06/11 12:53:25;;;;;;;0.57;0.50;;;20.50;99.90;;;;;;5142475;27;20190;-73
2022/06/11 12:56:25;;;;;;;0.50;0.50;;;20.80;99.90;;;;;;5124831;27;20649;-72
2022/06/11 12:59:16;;;;;;;0.20;0.20;;;21.10;99.90;;;;;;5142983;27;20195;-72
2022/06/11 13:01:56;;;;;;;0.85;0.85;;;21.10;99.90;;;;;;5162446;27;20222;-73
2022/06/11 13:05:19;;;;;;;0.50;0.50;;;20.80;99.90;;;;;;5163957;27;20182;-74
2022/06/11 13:07:45;;;;;;;0.47;0.47;;;21.30;99.90;;;;;;5096210;28;20275;-74
2022/06/11 13:10:32;;;;;;;0.47;0.47;;;21.70;99.90;;;;;;5079817;28;20231;-74
2022/06/11 13:13:43;;;;;;;0.20;0.20;;;21.50;99.90;;;;;;5113453;27;20209;-73
2022/06/11 13:16:30;;;;;;;2.30;1.00;;;21.20;99.90;;;;;;5144508;27;20205;-73
2022/06/11 13:19:19;;;;;;;0.55;0.45;;;21.20;99.90;;;;;;5165049;27;20186;-74
2022/06/11 13:21:54;;;;;;;0.22;0.22;;;21.20;99.90;;;;;;5147142;27;20198;-73
2022/06/11 13:24:26;;;;;;;0.40;0.40;;;21.20;99.90;;;;;;5164634;27;20209;-73
2022/06/11 13:27:20;;;;;;;0.30;0.30;;;21.20;99.90;;;;;;5164456;27;20680;-73
2022/06/11 13:29:56;;;;;;;7.68;0.60;;;21.10;99.90;;;;;;5143153;27;20186;-73
2022/06/11 13:32:32;;;;;;;0.90;0.68;;;20.80;99.90;;;;;;5163412;27;20190;-73
2022/06/11 13:35:15;;;;;;;0.60;0.60;;;20.60;99.90;;;;;;5163360;27;20246;-73
2022/06/11 13:37:53;;;;;;;0.32;0.32;;;20.50;99.90;;;;;;5162099;27;20640;-72
2022/06/11 13:40:28;;;;;;;1.65;1.20;;;20.10;99.90;;;;;;5160122;27;20186;-73
2022/06/11 13:43:20;;;;;;;1.05;0.93;;;20.60;99.90;;;;;;5160554;27;20558;-73
2022/06/11 13:45:51;;;;;;;0.30;0.30;;;21.20;99.90;;;;;;5141872;27;20751;-73
2022/06/11 13:48:46;;;;;;;0.30;0.30;;;21.60;99.90;;;;;;5161006;27;20265;-73
2022/06/11 13:51:18;;;;;;;7.32;1.50;;;22.30;99.90;;;;;;5098428;28;20314;-73
2022/06/11 13:57:10;;;;;;;0.30;0.30;;;22.40;99.90;;;;;;5130184;27;20208;-74
2022/06/11 13:59:54;;;;;;;0.50;0.50;;;22.20;99.90;;;;;;5138519;27;20255;-73
2022/06/11 14:02:57;;;;;;;0.43;0.43;;;22.10;99.90;;;;;;5133781;27;20227;-74
2022/06/11 14:05:30;;;;;;;0.32;0.32;;;22.80;99.90;;;;;;5132766;27;20198;-74
2022/06/11 14:07:58;;;;;;;0.57;0.30;;;24.10;99.90;;;;;;5135109;27;20195;-74
2022/06/11 14:10:31;;;;;;;0.30;0.30;;;24.80;99.90;;;;;;5133082;27;20725;-74
2022/06/11 14:13:10;;;;;;;0.65;0.50;;;25.20;99.90;;;;;;5137808;27;20198;-74
2022/06/11 14:15:42;;;;;;;0.20;0.20;;;25.10;98.60;;;;;;5139852;28;20250;-74
2022/06/11 14:18:23;;;;;;;0.43;0.43;;;25.20;99.90;;;;;;5137944;27;20194;-74
2022/06/11 14:21:06;;;;;;;0.63;0.40;;;25.00;98.40;;;;;;5133476;28;20190;-74
2022/06/11 14:23:32;;;;;;;2.20;0.95;;;25.10;97.30;;;;;;5134842;27;20270;-74
2022/06/11 14:26:02;;;;;;;0.25;0.25;;;24.60;95.70;;;;;;5136617;27;20195;-74
2022/06/11 14:28:27;;;;;;;0.30;0.30;;;24.90;96.60;;;;;;5135650;27;20687;-74
2022/06/11 14:30:59;;;;;;;3.33;0.70;;;25.20;96.40;;;;;;5135735;27;20187;-74
2022/06/11 14:34:06;;;;;;;0.43;0.43;;;25.20;95.20;;;;;;5132989;28;20575;-74
2022/06/11 14:36:32;;;;;;;0.20;0.20;;;24.70;94.20;;;;;;5119460;28;20301;-74
2022/06/11 14:38:59;;;;;;;0.65;0.40;;;23.80;96.80;;;;;;5133830;27;20658;-74
2022/06/11 14:41:25;;;;;;;0.38;0.38;;;23.50;96.30;;;;;;5132950;28;20199;-74
2022/06/11 14:43:51;;;;;;;0.73;0.70;;;23.40;97.30;;;;;;5133745;28;20564;-74
2022/06/11 14:46:39;;;;;;;0.30;0.30;;;24.00;94.90;;;;;;5133583;27;20197;-74
2022/06/11 14:49:18;;;;;;;0.50;0.45;;;24.10;96.30;;;;;;5132354;28;20191;-74
2022/06/11 14:52:08;;;;;;;3.65;0.82;;;24.20;96.40;;;;;;5132070;28;20237;-74
2022/06/11 14:55:01;;;;;;;1.08;0.98;;;23.60;95.20;;;;;;5133076;27;20675;-75
2022/06/11 14:57:57;;;;;;;0.55;0.55;;;22.90;95.90;;;;;;5133237;27;20197;-74
2022/06/11 15:01:00;;;;;;;0.52;0.35;;;22.40;99.00;;;;;;5131891;28;20226;-74
2022/06/11 15:03:39;;;;;;;0.30;0.30;;;22.10;97.40;;;;;;5132001;28;20197;-73